createdAt,value
2022-08-21T00:04:54.543Z,47.13
2022-08-21T00:09:59.762Z,50.55
2022-08-21T00:15:01.758Z,47.97
2022-08-21T00:20:07.547Z,47.28
2022-08-21T00:25:10.578Z,49.95
2022-08-21T00:30:23.163Z,51.17
2022-08-21T00:35:39.237Z,48.25
2022-08-21T00:40:45.980Z,49.03
2022-08-21T00:45:48.250Z,52.00
2022-08-21T00:50:57.893Z,50.40
2022-08-21T00:56:00.890Z,55.58
2022-08-21T01:01:08.715Z,58.17
2022-08-21T01:06:10.659Z,51.28
2022-08-21T01:11:12.356Z,55.92
2022-08-21T01:16:18.100Z,60.50
2022-08-21T01:21:28.032Z,60.47
2022-08-21T01:26:34.005Z,62.33
2022-08-21T01:31:38.137Z,54.58
2022-08-21T01:36:40.289Z,33.38
2022-08-21T01:41:42.425Z,25.40
2022-08-21T01:46:44.061Z,22.17
2022-08-21T01:51:45.793Z,12.10
2022-08-21T01:56:50.791Z,13.48
2022-08-21T02:01:55.068Z,15.02
2022-08-21T02:06:56.709Z,12.82
2022-08-21T02:11:58.384Z,14.50
2022-08-21T02:17:05.441Z,13.52
2022-08-21T02:22:11.834Z,14.05
2022-08-21T02:27:13.494Z,14.45
2022-08-21T02:32:15.868Z,13.80
2022-08-21T02:37:17.842Z,13.30
2022-08-21T02:42:19.628Z,14.07
2022-08-21T02:47:21.325Z,13.70
2022-08-21T02:52:23.052Z,16.38
2022-08-21T02:57:24.692Z,17.05
2022-08-21T03:02:26.664Z,18.48
2022-08-21T03:07:28.448Z,18.45
2022-08-21T03:12:30.309Z,18.65
2022-08-21T03:17:32.304Z,17.95
2022-08-21T03:22:34.005Z,18.38
2022-08-21T03:27:36.190Z,16.80
2022-08-21T03:32:42.132Z,16.85
2022-08-21T03:37:44.413Z,17.65
2022-08-21T03:42:48.073Z,17.05
2022-08-21T03:47:59.390Z,16.75
2022-08-21T03:53:01.149Z,20.45
2022-08-21T03:58:16.832Z,17.90
2022-08-21T04:03:20.916Z,18.30
2022-08-21T04:08:22.803Z,19.13
2022-08-21T04:13:25.225Z,20.42
2022-08-21T04:18:27.010Z,20.50
2022-08-21T04:23:28.912Z,22.00
2022-08-21T04:28:31.239Z,21.48
2022-08-21T04:33:33.020Z,22.13
2022-08-21T04:38:37.516Z,20.58
2022-08-21T04:43:40.472Z,23.30
2022-08-21T04:48:42.181Z,22.33
2022-08-21T04:53:53.153Z,23.15
2022-08-21T04:58:58.431Z,21.27
2022-08-21T05:04:02.033Z,22.30
2022-08-21T05:09:04.438Z,22.80
2022-08-21T05:14:06.088Z,22.88
2022-08-21T05:19:08.843Z,23.13
2022-08-21T05:24:11.420Z,20.90
2022-08-21T05:29:14.224Z,22.42
2022-08-21T05:34:21.737Z,23.30
2022-08-21T05:39:23.404Z,24.33
2022-08-21T05:44:25.064Z,26.30
2022-08-21T05:49:28.558Z,26.65
2022-08-21T05:54:30.694Z,26.75
2022-08-21T05:59:32.402Z,26.70
2022-08-21T06:04:37.172Z,27.77
2022-08-21T06:09:39.139Z,27.88
2022-08-21T06:14:42.173Z,25.63
2022-08-21T06:19:43.820Z,28.35
2022-08-21T06:24:47.938Z,26.42
2022-08-21T06:29:49.608Z,26.35
2022-08-21T06:34:51.321Z,27.00
2022-08-21T06:39:53.240Z,23.55
2022-08-21T06:44:55.519Z,22.55
2022-08-21T06:49:57.925Z,20.00
2022-08-21T06:54:59.574Z,21.10
2022-08-21T07:00:01.248Z,18.20
2022-08-21T07:05:07.890Z,18.70
2022-08-21T07:10:22.440Z,17.60
2022-08-21T07:15:24.550Z,17.23
2022-08-21T07:20:30.670Z,17.17
2022-08-21T07:25:32.719Z,18.92
2022-08-21T07:30:34.490Z,19.10
2022-08-21T07:35:37.188Z,17.60
2022-08-21T07:40:39.875Z,18.30
2022-08-21T07:45:41.578Z,19.15
2022-08-21T07:50:44.045Z,18.38
2022-08-21T07:55:45.675Z,17.92
2022-08-21T08:00:47.321Z,18.45
2022-08-21T08:05:49.037Z,17.15
2022-08-21T08:10:50.893Z,15.73
2022-08-21T08:15:52.717Z,16.95
2022-08-21T08:20:54.392Z,15.75
2022-08-21T08:25:56.047Z,16.25
2022-08-21T08:30:57.695Z,15.48
2022-08-21T08:36:01.353Z,14.13
2022-08-21T08:41:19.869Z,12.35
2022-08-21T08:46:40.467Z,12.13
2022-08-21T08:51:53.130Z,12.57
2022-08-21T08:56:56.803Z,13.05
2022-08-21T09:01:58.837Z,9.02
2022-08-21T09:07:33.874Z,8.05
2022-08-21T09:13:02.805Z,6.15
2022-08-21T09:18:31.999Z,7.25
2022-08-21T09:24:03.386Z,5.43
2022-08-21T09:29:07.954Z,5.43
2022-08-21T09:34:13.095Z,5.05
2022-08-21T09:39:32.871Z,4.28
2022-08-21T09:44:44.911Z,3.63
2022-08-21T09:49:46.570Z,3.45
2022-08-21T09:54:53.573Z,4.10
2022-08-21T09:59:56.243Z,3.67
2022-08-21T10:05:01.206Z,2.70
2022-08-21T10:10:16.555Z,3.33
2022-08-21T10:15:48.327Z,3.35
2022-08-21T10:21:03.588Z,3.22
2022-08-21T10:26:39.969Z,3.42
2022-08-21T10:31:44.629Z,3.45
2022-08-21T10:37:10.530Z,3.22
2022-08-21T10:42:15.401Z,3.03
2022-08-21T10:47:28.839Z,4.00
2022-08-21T10:52:36.284Z,2.92
2022-08-21T10:57:57.484Z,3.45
2022-08-21T11:03:29.897Z,3.38
2022-08-21T11:08:38.933Z,2.83
2022-08-21T11:13:52.933Z,3.03
2022-08-21T11:18:57.510Z,3.92
2022-08-21T11:24:05.711Z,2.78
2022-08-21T11:29:30.701Z,2.17
2022-08-21T11:34:48.394Z,2.92
2022-08-21T11:40:10.367Z,2.53
2022-08-21T11:45:42.698Z,2.67
2022-08-21T11:50:46.742Z,2.30
2022-08-21T11:56:06.797Z,2.03
2022-08-21T12:01:22.790Z,2.30
2022-08-21T12:06:36.767Z,1.95
2022-08-21T12:12:00.601Z,2.08
2022-08-21T12:17:08.857Z,2.20
2022-08-21T12:22:15.764Z,2.83
2022-08-21T12:27:41.752Z,2.40
2022-08-21T12:32:43.806Z,2.38
2022-08-21T12:37:50.974Z,2.60
2022-08-21T12:42:58.811Z,2.40
2022-08-21T12:48:38.441Z,2.83
2022-08-21T12:53:45.736Z,2.50
2022-08-21T12:58:57.874Z,3.03
2022-08-21T13:04:05.279Z,2.33
2022-08-21T13:09:12.119Z,2.67
2022-08-21T13:14:38.341Z,1.80
2022-08-21T13:19:58.914Z,2.63
2022-08-21T13:25:00.700Z,2.28
2022-08-21T13:30:18.429Z,2.33
2022-08-21T13:35:23.906Z,2.08
2022-08-21T13:40:30.637Z,2.17
2022-08-21T13:45:33.797Z,2.35
2022-08-21T13:50:38.740Z,2.45
2022-08-21T13:55:44.853Z,2.30
2022-08-21T14:00:53.718Z,2.33
2022-08-21T14:05:55.500Z,2.35
2022-08-21T14:10:58.109Z,2.10
2022-08-21T14:16:03.442Z,2.00
2022-08-21T14:21:07.476Z,3.15
2022-08-21T14:26:10.122Z,2.03
2022-08-21T14:31:23.020Z,2.15
2022-08-21T14:36:25.372Z,2.42
2022-08-21T14:41:30.233Z,2.42
2022-08-21T14:46:33.150Z,1.88
2022-08-21T14:51:34.831Z,2.05
2022-08-21T14:56:37.011Z,1.95
2022-08-21T15:01:40.488Z,1.98
2022-08-21T15:06:42.245Z,1.88
2022-08-21T15:11:44.303Z,2.15
2022-08-21T15:16:46.621Z,1.85
2022-08-21T15:21:48.516Z,1.58
2022-08-21T15:26:50.494Z,1.60
2022-08-21T15:31:58.091Z,2.33
2022-08-21T15:36:59.801Z,2.60
2022-08-21T15:42:10.671Z,2.17
2022-08-21T15:47:16.541Z,2.33
2022-08-21T15:52:21.605Z,2.13
2022-08-21T15:57:25.699Z,2.08
2022-08-21T16:02:31.284Z,2.33
2022-08-21T16:07:32.960Z,1.77
2022-08-21T16:12:42.614Z,2.08
2022-08-21T16:17:48.813Z,1.83
2022-08-21T16:22:50.885Z,2.17
2022-08-21T16:27:59.583Z,1.88
2022-08-21T16:33:03.747Z,2.75
2022-08-21T16:38:05.447Z,2.22
2022-08-21T16:43:07.267Z,2.38
2022-08-21T16:48:09.849Z,1.90
2022-08-21T16:53:11.506Z,1.48
2022-08-21T16:58:34.959Z,2.50
2022-08-21T17:03:40.424Z,2.55
2022-08-21T17:08:42.470Z,2.13
2022-08-21T17:13:44.118Z,2.75
2022-08-21T17:18:47.772Z,2.78
2022-08-21T17:23:53.688Z,2.55
2022-08-21T17:28:55.465Z,2.15
2022-08-21T17:33:57.375Z,1.52
2022-08-21T17:38:59.808Z,2.80
2022-08-21T17:44:07.346Z,2.13
2022-08-21T17:49:09.189Z,1.92
2022-08-21T17:54:11.172Z,1.73
2022-08-21T17:59:13.059Z,1.88
2022-08-21T18:04:15.958Z,2.38
2022-08-21T18:09:18.468Z,1.90
2022-08-21T18:14:25.254Z,2.50
2022-08-21T18:19:27.170Z,2.85
2022-08-21T18:24:28.864Z,3.30
2022-08-21T18:29:30.618Z,3.40
2022-08-21T18:34:37.581Z,3.70
2022-08-21T18:39:39.250Z,3.70
2022-08-21T18:44:45.257Z,4.10
2022-08-21T18:49:46.934Z,8.20
2022-08-21T18:54:49.565Z,7.90
2022-08-21T18:59:51.808Z,5.65
2022-08-21T19:04:53.682Z,4.75
2022-08-21T19:10:24.094Z,4.43
2022-08-21T19:15:20.101Z,4.55
2022-08-21T19:20:30.085Z,4.25
2022-08-21T19:31:00.653Z,4.40
2022-08-21T19:36:05.504Z,4.05
2022-08-21T19:41:10.346Z,4.22
2022-08-21T19:46:15.822Z,5.05
2022-08-21T19:51:18.801Z,3.97
2022-08-21T19:56:24.657Z,4.18
2022-08-21T20:01:27.580Z,3.83
2022-08-21T20:06:29.373Z,4.68
2022-08-21T20:11:38.016Z,4.40
2022-08-21T20:16:41.433Z,4.15
2022-08-21T20:21:44.570Z,4.90
2022-08-21T20:26:49.260Z,5.18
2022-08-21T20:31:52.006Z,4.85
2022-08-21T20:36:53.873Z,5.60
2022-08-21T20:41:56.742Z,5.18
2022-08-21T20:46:59.857Z,4.45
2022-08-21T20:52:09.115Z,4.72
2022-08-21T20:57:18.259Z,4.95
2022-08-21T21:02:42.866Z,5.45
2022-08-21T21:08:00.756Z,4.80
2022-08-21T21:13:26.237Z,4.75
2022-08-21T21:18:37.237Z,5.20
2022-08-21T21:24:14.876Z,4.55
2022-08-21T21:29:25.556Z,4.35
2022-08-21T21:34:31.917Z,4.55
2022-08-21T21:40:08.806Z,4.25
2022-08-21T21:45:10.408Z,5.05
2022-08-21T21:50:21.178Z,5.47
2022-08-21T21:55:50.764Z,5.57
2022-08-21T22:01:07.256Z,5.13
2022-08-21T22:06:27.255Z,4.40
2022-08-21T22:11:58.355Z,5.45
2022-08-21T22:17:08.330Z,5.32
2022-08-21T22:22:23.151Z,4.90
2022-08-21T22:27:34.127Z,5.15
2022-08-21T22:32:45.779Z,6.28
2022-08-21T22:37:55.136Z,5.28
2022-08-21T22:43:02.628Z,5.50
2022-08-21T22:48:11.091Z,5.38
2022-08-21T22:53:23.978Z,4.68
2022-08-21T22:58:30.607Z,5.20
2022-08-21T23:03:52.966Z,5.10
2022-08-21T23:08:55.460Z,5.25
2022-08-21T23:13:57.125Z,4.68
2022-08-21T23:19:17.661Z,5.72
2022-08-21T23:24:46.629Z,4.88
2022-08-21T23:30:18.528Z,5.75
2022-08-21T23:35:48.237Z,5.60
2022-08-21T23:41:18.863Z,5.25
2022-08-21T23:46:56.954Z,5.38
2022-08-21T23:52:19.931Z,5.53
2022-08-21T23:57:31.243Z,5.93
